North, South Carolina
Current Conditions -  °F | °C
As of 12:53 AM on Saturday 20 Dec 2014 (Local Time) from KOGB Reporting Station
Broken Clouds Broken Clouds  
Wind Chill: 47°   Ceiling: 11000
Heat Index: 49°   Visibility: 10mi
Dew Point: 42°   Wind: 5mph
Humidity: 77%   Direction: 30°NNE
Pressure: 30.16"   Gusts: NA
Location:  33.62°N, 81.1°W
Report Text: KOGB 200553Z AUTO 03004KT 10SM BKN110 09/06 A3016 RMK AO2 SLP212 T00940056 10117 20094 50005
Loading
Personal Weather Stations






























Interactive Weather Map New forecast layout! Learn more

10-Day Weather Forecast

Advertisements
Track Severe Weather on mobile